Terminal Aerodrome Forecast
Issued by NWS

Home | Current Version | Previous Version | Text Only | Print | Product List | Glossary On
Versions: 1 2 3 4 5 6 7 8 9 10 11 12 13 14 15
000
FTAK31 PAJN 261919 AAA
TAFASI
TAF AMD
PASI 261919Z 2619/2718 34006KT P6SM VCSH SCT050 BKN100
     FM262100 11012KT P6SM -RA SCT030 OVC045
     FM270200 16009KT 6SM -RA BR OVC025
     FM270500 16012G19KT P6SM -SHRA BKN025 OVC040
     FM271200 12015G22KT P6SM -RA OVC035=

USA.gov is the U.S. government's official web portal to all federal, state and local government web resources and services.